Time;durP1;ratioP1;P1;durP2;ratioP2;P2;SDS_P1;SDS_P2;PMS_P1;PMS_P2;Temp;Humidity;BMP_temperature;BMP_pressure;BME280_temperature;BME280_humidity;BME280_pressure;Samples;Min_cycle;Max_cycle;Signal;HPM_P1;HPM_P2
2021/01/27 00:00:58;;;;;;;30.20;6.95;;;;;;;8.59;89.52;100430.31;4970259;28;20134;-80
2021/01/27 00:03:25;;;;;;;36.45;9.02;;;;;;;8.56;89.46;100431.78;4962469;28;20042;-80
2021/01/27 00:05:53;;;;;;;44.05;8.85;;;;;;;8.54;89.40;100439.59;4970812;28;20432;-81
2021/01/27 00:08:21;;;;;;;38.17;7.57;;;;;;;8.50;89.34;100438.66;4965578;28;20050;-80
2021/01/27 00:10:48;;;;;;;25.27;7.05;;;;;;;8.49;89.32;100450.03;4974686;28;20082;-81
2021/01/27 00:13:17;;;;;;;31.27;7.38;;;;;;;8.44;89.34;100453.81;4986041;28;20043;-81
2021/01/27 00:15:46;;;;;;;40.17;8.57;;;;;;;8.43;89.48;100448.63;4979314;28;20043;-81
2021/01/27 00:18:15;;;;;;;26.63;6.82;;;;;;;8.41;89.39;100439.88;4971996;28;20500;-81
2021/01/27 00:20:42;;;;;;;28.05;7.00;;;;;;;8.40;89.58;100438.25;4973335;28;20457;-80
2021/01/27 00:23:09;;;;;;;28.80;6.93;;;;;;;8.38;89.32;100433.09;4962572;28;20097;-81
2021/01/27 00:25:37;;;;;;;32.28;8.10;;;;;;;8.39;89.56;100442.19;4962502;28;20113;-81
2021/01/27 00:28:06;;;;;;;32.13;9.63;;;;;;;8.37;89.59;100434.22;4991526;28;20122;-80
2021/01/27 00:30:39;;;;;;;25.52;7.25;;;;;;;8.37;89.51;100427.91;4984243;28;20047;-80
2021/01/27 00:33:07;;;;;;;29.20;7.35;;;;;;;8.36;89.53;100431.81;4985817;28;20554;-82
2021/01/27 00:35:37;;;;;;;35.42;7.38;;;;;;;8.35;89.50;100419.16;4988064;28;20078;-81
2021/01/27 00:38:10;;;;;;;27.35;6.25;;;;;;;8.34;89.54;100436.88;4981156;28;20212;-81
2021/01/27 00:40:37;;;;;;;23.92;5.85;;;;;;;8.34;89.65;100423.09;4958503;28;20045;-81
2021/01/27 00:43:03;;;;;;;29.10;7.78;;;;;;;8.35;89.65;100435.72;4974537;28;20124;-81
2021/01/27 00:45:30;;;;;;;23.40;5.72;;;;;;;8.35;89.20;100444.00;4973796;28;20077;-82
2021/01/27 00:47:56;;;;;;;24.35;5.53;;;;;;;8.34;89.53;100437.66;4978490;28;20551;-81
2021/01/27 00:50:23;;;;;;;21.33;5.68;;;;;;;8.35;89.45;100435.72;4974615;28;20047;-80
2021/01/27 00:52:50;;;;;;;29.70;7.45;;;;;;;8.34;89.62;100440.41;4974321;28;20121;-80
2021/01/27 00:55:19;;;;;;;21.92;4.80;;;;;;;8.33;89.35;100429.72;4976932;28;20063;-81
2021/01/27 00:57:46;;;;;;;17.02;5.13;;;;;;;8.33;89.41;100438.81;4977838;28;20074;-82
2021/01/27 01:00:15;;;;;;;18.65;4.30;;;;;;;8.35;89.48;100446.75;4980001;28;20085;-81
2021/01/27 01:02:41;;;;;;;13.98;6.28;;;;;;;8.33;89.54;100435.25;4975663;28;20049;-81
2021/01/27 01:05:12;;;;;;;13.50;5.57;;;;;;;8.34;89.47;100434.13;4985597;28;20034;-81
2021/01/27 01:07:38;;;;;;;19.15;5.88;;;;;;;8.35;89.45;100421.91;4990335;28;20464;-81
2021/01/27 01:10:06;;;;;;;21.70;5.43;;;;;;;8.35;89.54;100417.22;4983383;28;20195;-80
2021/01/27 01:12:33;;;;;;;24.75;5.30;;;;;;;8.35;89.53;100411.69;4973871;28;20085;-82
2021/01/27 01:15:00;;;;;;;18.63;5.00;;;;;;;8.37;89.62;100414.91;4942601;29;20047;-81
2021/01/27 01:17:28;;;;;;;23.15;6.35;;;;;;;8.37;89.41;100408.59;4955955;29;20043;-81
2021/01/27 01:19:54;;;;;;;20.67;5.63;;;;;;;8.35;89.51;100402.63;4971556;28;20392;-80
2021/01/27 01:22:22;;;;;;;20.42;5.30;;;;;;;8.37;89.48;100400.31;4973220;28;20407;-81
2021/01/27 01:24:48;;;;;;;21.55;5.68;;;;;;;8.36;89.50;100394.03;4989119;28;20048;-81
2021/01/27 01:27:17;;;;;;;17.38;6.00;;;;;;;8.36;89.63;100393.22;4994389;28;20046;-80
2021/01/27 01:29:43;;;;;;;19.10;5.07;;;;;;;8.35;89.65;100386.06;4980138;28;20053;-80
2021/01/27 01:32:10;;;;;;;21.00;5.25;;;;;;;8.34;89.64;100390.00;4983860;28;20456;-82
2021/01/27 01:34:36;;;;;;;16.60;5.60;;;;;;;8.33;89.68;100391.94;4974437;28;20427;-81
2021/01/27 01:37:02;;;;;;;25.90;5.82;;;;;;;8.32;89.75;100392.25;4975145;28;20191;-80
2021/01/27 01:39:28;;;;;;;20.52;6.72;;;;;;;8.31;89.68;100380.41;4957741;28;20086;-81
2021/01/27 01:41:55;;;;;;;15.90;4.40;;;;;;;8.31;89.81;100380.41;4976291;28;20080;-81
2021/01/27 01:44:22;;;;;;;21.75;5.57;;;;;;;8.29;90.04;100390.97;4965638;28;20046;-81
2021/01/27 01:46:49;;;;;;;19.20;5.28;;;;;;;8.30;89.78;100389.03;4975836;28;20104;-81
2021/01/27 01:49:16;;;;;;;16.55;4.53;;;;;;;8.28;89.81;100383.88;4957486;28;20054;-81
2021/01/27 01:51:51;;;;;;;17.48;4.70;;;;;;;8.28;89.99;100391.34;4957934;28;20070;-80
2021/01/27 01:54:20;;;;;;;16.35;4.60;;;;;;;8.28;90.17;100385.81;4975131;28;20050;-81
2021/01/27 01:56:58;;;;;;;14.60;4.18;;;;;;;8.27;89.87;100379.50;4976026;28;20142;-81
2021/01/27 01:59:33;;;;;;;26.50;5.25;;;;;;;8.27;90.02;100371.22;4976425;28;20562;-82
2021/01/27 02:02:06;;;;;;;11.13;3.63;;;;;;;8.27;89.89;100367.66;4989707;28;20465;-81
2021/01/27 02:04:45;;;;;;;16.08;3.63;;;;;;;8.27;89.80;100370.41;4965288;28;20252;-80
2021/01/27 02:07:11;;;;;;;14.10;2.75;;;;;;;8.25;89.77;100375.44;4974848;28;20532;-80
2021/01/27 02:09:38;;;;;;;12.27;2.67;;;;;;;8.26;89.68;100382.56;4979804;28;20494;-81
2021/01/27 02:12:21;;;;;;;11.68;4.65;;;;;;;8.26;89.55;100390.84;4976963;28;20093;-80
2021/01/27 02:15:15;;;;;;;14.40;3.08;;;;;;;8.25;89.39;100391.97;4955508;28;20073;-81
2021/01/27 02:17:47;;;;;;;12.45;2.25;;;;;;;8.26;89.51;100399.91;4938040;29;20047;-81
2021/01/27 02:20:59;;;;;;;7.13;2.10;;;;;;;8.25;89.31;100392.78;4962057;28;20042;-81
2021/01/27 02:23:28;;;;;;;10.18;3.53;;;;;;;8.26;89.28;100404.63;4988874;28;20059;-81
2021/01/27 02:26:16;;;;;;;13.40;2.67;;;;;;;8.25;89.13;100411.28;4968074;28;20058;-80
2021/01/27 02:29:01;;;;;;;11.25;2.72;;;;;;;8.24;88.92;100418.75;4981189;28;20042;-81
2021/01/27 02:31:36;;;;;;;9.48;2.42;;;;;;;8.24;88.92;100413.22;4994025;28;20130;-81
2021/01/27 02:34:37;;;;;;;5.35;1.77;;;;;;;8.24;88.62;100413.22;4982182;28;20039;-81
2021/01/27 02:37:08;;;;;;;6.82;2.30;;;;;;;8.25;88.67;100414.03;4975683;28;20047;-80
2021/01/27 02:39:44;;;;;;;9.30;2.40;;;;;;;8.25;88.46;100409.34;4955651;29;20130;-80
2021/01/27 02:42:19;;;;;;;11.77;2.58;;;;;;;8.27;88.65;100411.78;4956010;29;20039;-80
2021/01/27 02:44:57;;;;;;;13.02;2.33;;;;;;;8.26;88.44;100410.94;4985799;28;20042;-82
2021/01/27 02:47:33;;;;;;;9.27;2.28;;;;;;;8.27;88.43;100411.78;4994405;28;20131;-81
2021/01/27 02:50:21;;;;;;;12.85;2.78;;;;;;;8.27;88.51;100417.28;4992359;28;20073;-81
2021/01/27 02:52:57;;;;;;;5.72;2.00;;;;;;;8.27;88.31;100420.03;4975636;28;20097;-81
2021/01/27 02:55:31;;;;;;;11.32;1.83;;;;;;;8.27;88.28;100414.53;4957370;28;20049;-80
2021/01/27 02:58:04;;;;;;;10.70;4.00;;;;;;;8.28;88.37;100424.44;4951829;28;20142;-81
2021/01/27 03:00:35;;;;;;;8.35;2.38;;;;;;;8.28;88.37;100429.94;4994349;28;20038;-81
2021/01/27 03:03:07;;;;;;;8.68;2.88;;;;;;;8.29;88.00;100432.34;4993167;28;20049;-81
2021/01/27 03:05:43;;;;;;;10.00;2.90;;;;;;;8.28;88.15;100433.50;4973265;28;20050;-81
2021/01/27 03:08:15;;;;;;;7.20;2.25;;;;;;;8.29;87.95;100431.53;4973975;28;20050;-80
2021/01/27 03:11:08;;;;;;;11.82;3.50;;;;;;;8.28;87.96;100432.69;4980780;28;20109;-81
2021/01/27 03:13:35;;;;;;;;;;;;;;;8.27;88.11;100433.84;4965443;28;20038;-81
2021/01/27 03:16:07;;;;;;;8.63;1.95;;;;;;;8.28;88.24;100436.28;4973081;28;19926;-80
2021/01/27 03:18:37;;;;;;;9.07;2.20;;;;;;;8.29;87.97;100437.88;4974690;28;20051;-79
2021/01/27 03:21:08;;;;;;;9.15;2.08;;;;;;;8.28;88.29;100432.69;4960461;28;20038;-81
2021/01/27 03:23:40;;;;;;;10.27;2.42;;;;;;;8.28;88.10;100422.47;4964205;28;20066;-82
2021/01/27 03:26:24;;;;;;;8.23;2.35;;;;;;;8.29;87.94;100420.50;4975277;28;20122;-81
2021/01/27 03:28:57;;;;;;;10.95;1.95;;;;;;;8.29;88.12;100420.50;4966396;28;20470;-81
2021/01/27 03:31:25;;;;;;;12.82;2.75;;;;;;;8.31;88.13;100418.25;4948595;28;20049;-81
2021/01/27 03:33:57;;;;;;;7.28;2.30;;;;;;;8.32;88.08;100419.84;4981246;28;20047;-82
2021/01/27 03:36:27;;;;;;;8.25;2.35;;;;;;;8.32;88.13;100408.81;4970997;28;20157;-80
2021/01/27 03:38:54;;;;;;;10.70;2.05;;;;;;;8.33;88.13;100418.69;4972981;28;20468;-82
2021/01/27 03:41:38;;;;;;;9.80;3.33;;;;;;;8.32;88.14;100420.66;4973616;28;20043;-81
2021/01/27 03:44:13;;;;;;;10.20;2.60;;;;;;;8.33;88.16;100415.94;4975877;28;20085;-80
2021/01/27 03:46:51;;;;;;;9.23;2.25;;;;;;;8.32;88.02;100406.84;4981078;28;20072;-81
2021/01/27 03:49:26;;;;;;;6.70;2.90;;;;;;;8.34;88.07;100403.78;4992353;28;20030;-82
2021/01/27 03:52:39;;;;;;;6.53;2.00;;;;;;;8.34;88.04;100401.03;4980913;28;20074;-81
2021/01/27 03:55:31;;;;;;;8.57;2.55;;;;;;;8.34;88.01;100381.72;4954336;28;20055;-81
2021/01/27 03:58:19;;;;;;;12.73;2.33;;;;;;;8.34;88.06;100381.72;4964726;28;20051;-81
2021/01/27 04:00:47;;;;;;;11.02;2.97;;;;;;;8.33;87.98;100372.63;4960080;28;20039;-81
2021/01/27 04:03:22;;;;;;;12.32;3.45;;;;;;;8.31;87.96;100358.34;4963647;28;20138;-81
2021/01/27 04:05:48;;;;;;;5.82;1.75;;;;;;;8.29;87.71;100351.56;4982377;28;20043;-81
2021/01/27 04:08:15;;;;;;;9.80;2.50;;;;;;;8.27;87.77;100359.38;4983423;28;20117;-82
2021/01/27 04:10:42;;;;;;;9.18;2.78;;;;;;;8.26;87.47;100360.50;4967530;28;20038;-81
2021/01/27 04:13:08;;;;;;;4.90;2.13;;;;;;;8.24;87.74;100354.50;4970235;28;20046;-81
2021/01/27 04:15:35;;;;;;;12.15;2.00;;;;;;;8.21;87.58;100361.50;4978233;28;20054;-81
2021/01/27 04:18:02;;;;;;;7.78;1.58;;;;;;;8.18;87.68;100372.41;4976663;28;20042;-81
2021/01/27 04:20:28;;;;;;;6.90;1.85;;;;;;;8.15;87.69;100376.66;4994201;28;20061;-80
2021/01/27 04:22:55;;;;;;;7.85;1.98;;;;;;;8.16;87.72;100377.44;4976599;28;20122;-81
2021/01/27 04:25:21;;;;;;;8.90;3.90;;;;;;;8.16;87.80;100380.19;4980959;28;20082;-81
2021/01/27 04:27:49;;;;;;;15.88;2.90;;;;;;;8.17;87.72;100374.38;4977099;28;20078;-80
2021/01/27 04:30:19;;;;;;;5.95;2.45;;;;;;;8.18;87.76;100387.00;4989906;28;20101;-80
2021/01/27 04:32:46;;;;;;;9.05;2.95;;;;;;;8.21;87.59;100386.31;4963573;28;20055;-81
2021/01/27 04:35:13;;;;;;;4.65;1.80;;;;;;;8.21;87.70;100391.84;4977363;28;20034;-81
2021/01/27 04:37:40;;;;;;;10.43;1.85;;;;;;;8.22;87.79;100400.91;4978309;28;20130;-81
2021/01/27 04:40:10;;;;;;;8.68;2.22;;;;;;;8.21;87.86;100415.84;4994403;28;20042;-81
2021/01/27 04:42:37;;;;;;;14.20;4.65;;;;;;;8.21;87.85;100424.13;4991602;28;20043;-81
2021/01/27 04:45:05;;;;;;;13.05;3.60;;;;;;;8.21;87.69;100440.66;4974630;28;20590;-81
2021/01/27 04:47:31;;;;;;;5.80;2.65;;;;;;;8.22;87.94;100445.03;4957373;28;20101;-80
2021/01/27 04:50:05;;;;;;;14.15;3.55;;;;;;;8.21;87.88;100449.75;4976027;28;20490;-80
2021/01/27 04:52:51;;;;;;;6.20;1.70;;;;;;;8.21;87.92;100452.50;4977591;28;20098;-81
2021/01/27 04:55:42;;;;;;;6.30;2.38;;;;;;;8.22;87.86;100442.28;4977003;28;20499;-81
2021/01/27 04:58:37;;;;;;;8.48;1.80;;;;;;;8.22;87.88;100443.09;4993200;28;20059;-82
2021/01/27 05:01:40;;;;;;;8.88;2.22;;;;;;;8.24;87.96;100445.50;4984846;28;20134;-81
2021/01/27 05:04:16;;;;;;;7.80;2.05;;;;;;;8.25;87.92;100455.41;4955341;28;20373;-81
2021/01/27 05:06:47;;;;;;;8.80;2.38;;;;;;;8.26;87.82;100446.00;4971854;28;20071;-81
2021/01/27 05:09:28;;;;;;;16.48;3.55;;;;;;;8.27;87.86;100444.88;4964673;28;20047;-80
2021/01/27 05:11:57;;;;;;;11.57;2.27;;;;;;;8.28;87.92;100452.00;4994604;28;20061;-81
2021/01/27 05:14:25;;;;;;;5.82;1.73;;;;;;;8.28;87.85;100440.97;4978257;28;20101;-81
2021/01/27 05:16:52;;;;;;;19.20;2.55;;;;;;;8.29;87.64;100450.84;4995008;28;20097;-81
2021/01/27 05:19:18;;;;;;;7.40;2.33;;;;;;;8.29;87.78;100443.38;4978315;28;20093;-81
2021/01/27 05:21:49;;;;;;;10.25;4.57;;;;;;;8.28;87.88;100436.28;4994747;28;20050;-81
2021/01/27 05:24:15;;;;;;;14.55;2.25;;;;;;;8.30;88.03;100427.66;4978443;28;20121;-81
2021/01/27 05:26:59;;;;;;;11.38;2.78;;;;;;;8.29;87.79;100431.53;4976118;28;20126;-82
2021/01/27 05:29:37;;;;;;;10.57;3.22;;;;;;;8.30;87.69;100416.63;4977830;28;20135;-81
2021/01/27 05:32:09;;;;;;;14.77;3.55;;;;;;;8.31;87.72;100415.47;4959476;28;20053;-79
2021/01/27 05:34:56;;;;;;;7.15;2.80;;;;;;;8.28;87.76;100405.13;4958169;28;20491;-81
2021/01/27 05:37:28;;;;;;;14.57;4.70;;;;;;;8.27;87.87;100406.25;4992275;28;20034;-82
2021/01/27 05:40:07;;;;;;;9.93;4.40;;;;;;;8.25;87.81;100403.00;4982690;28;20046;-81
2021/01/27 05:42:38;;;;;;;12.90;2.97;;;;;;;8.25;87.87;100400.25;4958668;28;20122;-82
2021/01/27 05:45:44;;;;;;;8.52;2.55;;;;;;;8.20;87.90;100408.72;4976172;28;20039;-80
2021/01/27 05:48:21;;;;;;;11.00;3.70;;;;;;;8.17;87.86;100414.91;4932194;29;20054;-80
2021/01/27 05:50:49;;;;;;;13.77;4.00;;;;;;;8.15;88.04;100423.53;4915637;29;20052;-81
2021/01/27 05:53:36;;;;;;;16.40;3.55;;;;;;;8.14;88.01;100413.63;4959232;28;20085;-82
2021/01/27 05:56:25;;;;;;;10.50;3.38;;;;;;;8.13;87.76;100422.25;4974248;28;20058;-81
2021/01/27 05:58:54;;;;;;;8.95;4.72;;;;;;;8.13;88.02;100428.56;4978941;28;20161;-80
2021/01/27 06:01:32;;;;;;;17.63;4.30;;;;;;;8.15;88.09;100425.47;4965335;28;20038;-81
2021/01/27 06:04:12;;;;;;;13.35;4.78;;;;;;;8.15;88.25;100431.81;4993973;28;20046;-82
2021/01/27 06:06:50;;;;;;;9.73;3.75;;;;;;;8.17;88.23;100434.22;4969317;28;20126;-82
2021/01/27 06:09:39;;;;;;;9.85;4.15;;;;;;;8.16;88.30;100433.41;4984237;28;20121;-81
2021/01/27 06:12:11;;;;;;;16.23;4.93;;;;;;;8.16;88.39;100446.38;4991436;28;20395;-80
2021/01/27 06:14:40;;;;;;;15.57;4.78;;;;;;;8.17;88.32;100434.22;4976260;28;20109;-81
2021/01/27 06:17:28;;;;;;;13.90;4.55;;;;;;;8.17;88.42;100453.53;4947854;28;20138;-81
2021/01/27 06:20:03;;;;;;;23.92;4.75;;;;;;;8.18;88.48;100453.16;4993255;28;20035;-82
2021/01/27 06:22:51;;;;;;;13.30;4.40;;;;;;;8.20;88.62;100463.88;4963430;28;20578;-81
2021/01/27 06:25:35;;;;;;;13.32;4.57;;;;;;;8.20;88.74;100455.59;4990259;28;20049;-81
2021/01/27 06:28:39;;;;;;;14.50;4.85;;;;;;;8.21;88.69;100462.72;4971666;28;20053;-80
2021/01/27 06:31:26;;;;;;;16.88;5.10;;;;;;;8.21;88.53;100462.72;4961600;28;20125;-81
2021/01/27 06:34:20;;;;;;;13.82;3.92;;;;;;;8.22;88.54;100442.28;4949159;28;20751;-80
2021/01/27 06:37:08;;;;;;;16.10;4.15;;;;;;;8.22;88.65;100445.84;4991104;28;20046;-81
2021/01/27 06:40:16;;;;;;;14.40;5.57;;;;;;;8.22;88.51;100436.78;4974689;28;20161;-81
2021/01/27 06:43:04;;;;;;;19.38;5.88;;;;;;;8.23;88.62;100432.88;4965351;28;20043;-81
2021/01/27 06:45:47;;;;;;;17.63;6.28;;;;;;;8.23;88.70;100432.88;4987121;28;20133;-80
2021/01/27 06:48:51;;;;;;;12.02;4.00;;;;;;;8.22;88.48;100434.81;4993610;28;20161;-82
2021/01/27 06:51:27;;;;;;;11.95;4.05;;;;;;;8.23;88.48;100432.88;4983368;28;20129;-80
2021/01/27 06:54:02;;;;;;;9.60;3.92;;;;;;;8.23;88.60;100444.72;4975905;28;20054;-81
2021/01/27 06:57:00;;;;;;;13.07;3.30;;;;;;;8.22;88.53;100443.09;4988118;28;20073;-81
2021/01/27 06:59:48;;;;;;;11.98;4.47;;;;;;;8.21;88.43;100438.72;4992561;28;20050;-79
2021/01/27 07:02:29;;;;;;;14.85;3.45;;;;;;;8.22;88.32;100437.59;4982724;28;20123;-81
2021/01/27 07:05:30;;;;;;;14.73;4.75;;;;;;;8.20;88.63;100447.34;4975996;28;20050;-81
2021/01/27 07:08:06;;;;;;;16.13;3.42;;;;;;;8.20;88.55;100450.91;4965628;28;20125;-82
2021/01/27 07:10:55;;;;;;;14.82;4.88;;;;;;;8.21;88.48;100435.16;4974350;28;20454;-80
2021/01/27 07:13:30;;;;;;;15.80;3.80;;;;;;;8.21;88.38;100444.22;4982290;28;20039;-81
2021/01/27 07:16:14;;;;;;;9.18;3.28;;;;;;;8.22;88.54;100436.78;4955746;28;20035;-81
2021/01/27 07:19:04;;;;;;;12.57;2.88;;;;;;;8.21;88.57;100440.66;4973480;28;20050;-81
2021/01/27 07:21:43;;;;;;;12.73;2.95;;;;;;;8.21;88.55;100444.22;4986796;28;20049;-81
2021/01/27 07:24:36;;;;;;;9.77;2.83;;;;;;;8.21;88.64;100454.44;4956084;28;20480;-81
2021/01/27 07:27:21;;;;;;;10.93;3.38;;;;;;;8.20;88.56;100456.41;4991266;28;20045;-81
2021/01/27 07:29:55;;;;;;;7.32;2.58;;;;;;;8.21;88.47;100473.75;4973023;28;20070;-81
2021/01/27 07:32:42;;;;;;;9.65;2.55;;;;;;;8.20;88.77;100475.72;4982159;28;20052;-81
2021/01/27 07:35:44;;;;;;;14.63;2.55;;;;;;;8.21;88.69;100474.56;4973354;28;20043;-80
2021/01/27 07:38:18;;;;;;;16.33;3.90;;;;;;;8.21;88.78;100476.50;4956660;28;20559;-81
2021/01/27 07:40:52;;;;;;;10.48;2.40;;;;;;;8.22;88.76;100472.63;4973283;28;20053;-82
2021/01/27 07:43:25;;;;;;;12.20;2.00;;;;;;;8.23;88.84;100471.50;4974989;28;20039;-81
2021/01/27 07:45:54;;;;;;;16.27;3.40;;;;;;;8.24;88.79;100462.06;4958667;28;20494;-82
2021/01/27 07:48:33;;;;;;;7.72;3.08;;;;;;;8.23;88.87;100465.97;4973394;28;20046;-83
2021/01/27 07:51:05;;;;;;;15.82;3.83;;;;;;;8.24;88.77;100484.94;4973407;28;20447;-82
2021/01/27 07:53:37;;;;;;;9.23;2.50;;;;;;;8.23;88.84;100477.00;4980942;28;20043;-82
2021/01/27 07:56:17;;;;;;;9.02;3.00;;;;;;;8.23;88.85;100471.50;4986068;28;20125;-82
2021/01/27 07:59:35;;;;;;;10.65;2.85;;;;;;;8.22;89.04;100472.63;4984391;28;20062;-82
2021/01/27 08:02:10;;;;;;;11.95;2.63;;;;;;;8.21;88.95;100468.22;4979558;28;20038;-83
2021/01/27 08:05:09;;;;;;;10.50;2.17;;;;;;;8.21;88.88;100471.00;4989732;28;20047;-82
2021/01/27 08:07:40;;;;;;;10.65;2.28;;;;;;;8.20;88.85;100469.41;4957651;28;20129;-83
2021/01/27 08:10:30;;;;;;;8.48;3.90;;;;;;;8.18;89.18;100457.91;4985699;28;20129;-82
2021/01/27 08:13:01;;;;;;;9.07;2.03;;;;;;;8.20;88.94;100466.63;4953883;29;20035;-82
2021/01/27 08:16:15;;;;;;;5.28;2.08;;;;;;;8.21;89.03;100468.22;4954846;28;20054;-83
2021/01/27 08:19:13;;;;;;;8.93;2.65;;;;;;;8.19;89.08;100473.28;4953111;29;20043;-82
2021/01/27 08:21:46;;;;;;;8.93;2.10;;;;;;;8.20;89.04;100477.66;4926945;28;20038;-82
2021/01/27 08:24:33;;;;;;;5.95;2.20;;;;;;;8.20;89.14;100484.00;4980370;28;20042;-82
2021/01/27 08:27:28;;;;;;;14.25;3.42;;;;;;;8.21;89.10;100487.53;4992798;28;20104;-83
2021/01/27 08:29:54;;;;;;;9.20;2.13;;;;;;;8.23;89.12;100499.06;4987459;28;20061;-82
2021/01/27 08:32:30;;;;;;;15.75;4.10;;;;;;;8.24;89.27;100506.19;4973485;28;20035;-81
2021/01/27 08:35:03;;;;;;;9.85;2.60;;;;;;;8.24;89.24;100500.66;4971999;28;20074;-82
2021/01/27 08:38:13;;;;;;;8.20;2.30;;;;;;;8.25;89.31;100500.34;4974372;28;20051;-82
2021/01/27 08:40:45;;;;;;;16.08;3.17;;;;;;;8.27;89.35;100505.53;4971392;28;20506;-82
2021/01/27 08:43:13;;;;;;;12.85;2.13;;;;;;;8.29;89.31;100506.00;4980810;28;20474;-83
2021/01/27 08:45:40;;;;;;;8.60;2.72;;;;;;;8.30;89.24;100513.16;4976680;28;20053;-81
2021/01/27 08:48:07;;;;;;;9.82;2.85;;;;;;;8.32;89.44;100514.44;4955272;28;20043;-81
2021/01/27 08:50:52;;;;;;;10.77;3.13;;;;;;;8.33;89.25;100518.81;4955747;28;20086;-81
2021/01/27 08:53:27;;;;;;;7.70;2.90;;;;;;;8.34;89.50;100512.13;4972942;28;20042;-81
2021/01/27 08:56:01;;;;;;;8.38;2.20;;;;;;;8.37;89.24;100510.66;4971945;28;20079;-85
2021/01/27 08:58:35;;;;;;;10.13;3.05;;;;;;;8.39;89.50;100513.91;4988540;28;20062;-86
2021/01/27 09:01:08;;;;;;;11.57;4.63;;;;;;;8.40;89.39;100509.97;4963979;28;20094;-87
2021/01/27 09:03:58;;;;;;;13.48;4.38;;;;;;;8.41;89.42;100511.59;4981932;28;20060;-85
2021/01/27 09:06:49;;;;;;;18.58;5.63;;;;;;;8.43;89.29;100509.31;4989386;28;20062;-87
2021/01/27 09:09:28;;;;;;;11.35;4.18;;;;;;;8.43;89.30;100512.06;4975162;28;20047;-86
2021/01/27 09:11:58;;;;;;;10.77;4.07;;;;;;;8.44;89.37;100510.94;4975761;28;20049;-85
2021/01/27 09:14:25;;;;;;;12.50;4.82;;;;;;;8.46;89.65;100514.16;4976366;28;20101;-85
2021/01/27 09:16:52;;;;;;;15.15;4.57;;;;;;;8.47;89.43;100513.03;4961841;28;20062;-86
2021/01/27 09:19:23;;;;;;;12.60;3.15;;;;;;;8.48;89.39;100514.63;4992209;28;20058;-84
2021/01/27 09:22:06;;;;;;;11.60;4.97;;;;;;;8.50;89.38;100520.59;4975360;28;20497;-85
2021/01/27 09:24:41;;;;;;;15.85;4.28;;;;;;;8.52;89.46;100513.59;4975599;28;20047;-84
2021/01/27 09:27:23;;;;;;;17.33;3.97;;;;;;;8.55;89.44;100509.41;4958893;28;20038;-85
2021/01/27 09:30:18;;;;;;;10.43;3.60;;;;;;;8.57;89.35;100509.84;4984757;28;20491;-81
2021/01/27 09:32:46;;;;;;;9.80;3.72;;;;;;;8.62;89.43;100508.84;4955741;28;20571;-82
2021/01/27 09:35:23;;;;;;;12.80;5.95;;;;;;;8.63;89.33;100516.75;4956380;28;20113;-83
2021/01/27 09:37:58;;;;;;;19.65;5.55;;;;;;;8.67;89.38;100514.16;4983293;28;20051;-84
2021/01/27 09:40:29;;;;;;;15.15;4.75;;;;;;;8.70;89.34;100519.81;4955059;28;20065;-82
2021/01/27 09:43:06;;;;;;;12.13;5.57;;;;;;;8.72;89.19;100523.03;4982226;28;20053;-81
2021/01/27 09:45:34;;;;;;;11.43;5.28;;;;;;;8.76;89.15;100523.16;4992792;28;20227;-81
2021/01/27 09:48:01;;;;;;;19.55;7.43;;;;;;;8.78;89.01;100526.41;4976352;28;20551;-84
2021/01/27 09:50:29;;;;;;;12.30;5.00;;;;;;;8.80;88.94;100527.66;4971362;28;20043;-82
2021/01/27 09:52:59;;;;;;;16.33;4.78;;;;;;;8.82;88.72;100530.06;4972091;28;20050;-82
2021/01/27 09:55:28;;;;;;;9.40;3.87;;;;;;;8.83;88.92;100527.00;4974703;28;20529;-85
2021/01/27 09:57:55;;;;;;;11.82;4.47;;;;;;;8.85;88.79;100527.47;4956585;28;20113;-83
2021/01/27 10:00:35;;;;;;;6.95;3.13;;;;;;;8.88;88.44;100521.25;4955190;28;20079;-84
2021/01/27 10:03:23;;;;;;;13.25;3.60;;;;;;;8.90;88.55;100524.47;4971030;28;20038;-82
2021/01/27 10:05:51;;;;;;;10.65;3.80;;;;;;;8.93;88.55;100517.47;4977048;28;20082;-82
2021/01/27 10:08:24;;;;;;;5.10;3.25;;;;;;;8.96;88.48;100523.13;4991103;28;20097;-81
2021/01/27 10:11:09;;;;;;;11.68;3.55;;;;;;;9.00;88.25;100520.50;4979726;28;20082;-82
2021/01/27 10:13:37;;;;;;;25.92;4.38;;;;;;;9.03;88.65;100525.31;4953812;28;20054;-82
2021/01/27 10:16:13;;;;;;;11.50;3.95;;;;;;;9.06;88.37;100517.19;4969454;28;20070;-81
2021/01/27 10:18:43;;;;;;;11.32;4.57;;;;;;;9.12;88.30;100520.53;4976156;28;20097;-81
2021/01/27 10:21:17;;;;;;;8.73;4.20;;;;;;;9.17;88.45;100512.84;4984987;28;20066;-82
2021/01/27 10:23:46;;;;;;;10.32;3.88;;;;;;;9.23;88.04;100521.72;4956679;28;20717;-81
2021/01/27 10:26:35;;;;;;;14.23;4.78;;;;;;;9.28;87.92;100517.94;4950643;28;20122;-81
2021/01/27 10:29:18;;;;;;;11.80;6.07;;;;;;;9.29;87.76;100514.03;4972966;28;20877;-81
2021/01/27 10:31:51;;;;;;;8.60;4.88;;;;;;;9.32;87.83;100516.13;4958359;28;20082;-81
2021/01/27 10:34:40;;;;;;;13.38;4.22;;;;;;;9.33;87.35;100514.94;4981200;28;20042;-81
2021/01/27 10:37:37;;;;;;;10.30;3.63;;;;;;;9.34;87.55;100511.03;4972396;28;20038;-82
2021/01/27 10:40:07;;;;;;;8.65;3.65;;;;;;;9.38;87.57;100512.78;4970779;28;20086;-81
2021/01/27 10:42:39;;;;;;;10.85;3.95;;;;;;;9.41;87.32;100511.28;4965657;28;20097;-82
2021/01/27 10:45:14;;;;;;;;;;;;;;;9.43;87.15;100514.50;4973231;28;20074;-82
2021/01/27 10:47:43;;;;;;;12.80;3.97;;;;;;;9.51;87.23;100508.06;4974584;28;20020;-82
2021/01/27 10:50:10;;;;;;;11.75;4.85;;;;;;;9.58;87.43;100506.34;4972306;28;20468;-83
2021/01/27 10:52:58;;;;;;;9.82;4.47;;;;;;;9.67;87.28;100498.75;4980485;28;20065;-83
2021/01/27 10:55:34;;;;;;;15.20;6.65;;;;;;;9.74;87.27;100498.19;4979123;28;20505;-82
2021/01/27 10:58:08;;;;;;;13.18;6.18;;;;;;;9.78;87.28;100496.34;4974293;28;20571;-82
2021/01/27 11:00:36;;;;;;;17.70;6.90;;;;;;;9.84;87.24;100508.78;4976024;28;20047;-82
2021/01/27 11:03:04;;;;;;;21.23;15.00;;;;;;;9.86;87.08;100503.72;4983876;28;20077;-83
2021/01/27 11:05:31;;;;;;;18.13;10.23;;;;;;;9.88;87.28;100509.69;4980587;28;20038;-81
2021/01/27 11:07:59;;;;;;;18.05;8.70;;;;;;;9.91;86.98;100519.25;4971436;28;20093;-82
2021/01/27 11:10:25;;;;;;;13.60;7.05;;;;;;;9.93;86.77;100506.69;4972976;28;20134;-81
2021/01/27 11:12:51;;;;;;;13.10;5.53;;;;;;;9.95;87.03;100509.94;4981717;28;20046;-81
2021/01/27 11:15:19;;;;;;;10.20;5.22;;;;;;;9.98;86.59;100495.38;4982363;28;20125;-81
2021/01/27 11:17:47;;;;;;;8.93;3.53;;;;;;;9.96;86.69;100506.00;4968500;28;20464;-83
2021/01/27 11:20:14;;;;;;;7.57;3.80;;;;;;;9.96;86.52;100505.19;4977539;28;20402;-84
2021/01/27 11:22:43;;;;;;;11.70;4.20;;;;;;;9.93;86.39;100492.09;4977413;28;20057;-83
2021/01/27 11:25:10;;;;;;;12.38;4.45;;;;;;;9.93;86.48;100501.16;4972315;28;20353;-83
2021/01/27 11:27:37;;;;;;;10.93;4.22;;;;;;;9.97;86.32;100499.34;4974523;28;20197;-83
2021/01/27 11:30:04;;;;;;;8.15;3.60;;;;;;;10.02;86.19;100493.56;4954556;28;20155;-83
2021/01/27 11:32:30;;;;;;;8.98;4.07;;;;;;;10.06;86.20;100493.69;4972417;28;20043;-83
2021/01/27 11:34:56;;;;;;;8.40;3.92;;;;;;;10.10;86.43;100492.63;4952851;28;20043;-83
2021/01/27 11:37:23;;;;;;;10.55;3.60;;;;;;;10.13;86.02;100483.66;4984390;28;20043;-85
2021/01/27 11:39:49;;;;;;;9.25;3.45;;;;;;;10.16;85.82;100491.28;4980250;28;20125;-83
2021/01/27 11:42:15;;;;;;;7.22;3.30;;;;;;;10.17;85.78;100484.56;4979161;28;20117;-83
2021/01/27 11:44:41;;;;;;;10.93;3.35;;;;;;;10.20;85.70;100483.88;4967744;28;20054;-83
2021/01/27 11:47:08;;;;;;;10.52;3.67;;;;;;;10.25;85.63;100478.09;4973584;28;20141;-83
2021/01/27 11:49:34;;;;;;;8.55;3.63;;;;;;;10.28;85.57;100473.81;4969608;28;20043;-83
2021/01/27 11:52:01;;;;;;;11.52;2.60;;;;;;;10.30;85.43;100471.50;4966362;28;20049;-83
2021/01/27 11:54:27;;;;;;;5.88;2.95;;;;;;;10.33;85.46;100468.84;4971489;28;20507;-83
2021/01/27 11:56:54;;;;;;;10.27;3.88;;;;;;;10.33;85.16;100466.09;4972605;28;20137;-84
2021/01/27 11:59:20;;;;;;;14.20;4.57;;;;;;;10.31;85.04;100465.66;4974928;28;20211;-83
2021/01/27 12:01:46;;;;;;;15.80;3.58;;;;;;;10.30;84.84;100471.50;4969746;28;20038;-85
2021/01/27 12:04:13;;;;;;;14.40;4.32;;;;;;;10.27;85.20;100467.47;4970727;28;20508;-81